createdAt,value
2022-12-04T00:01:32.280Z,-0.82
2022-12-04T00:06:33.951Z,-0.78
2022-12-04T00:11:35.692Z,-0.77
2022-12-04T00:16:37.166Z,-0.75
2022-12-04T00:21:38.790Z,-0.77
2022-12-04T00:26:40.242Z,-0.79
2022-12-04T00:31:41.711Z,-0.75
2022-12-04T00:36:43.660Z,-0.77
2022-12-04T00:41:45.157Z,-0.78
2022-12-04T00:46:46.635Z,-0.76
2022-12-04T00:51:48.078Z,-0.75
2022-12-04T00:56:49.447Z,-0.76
2022-12-04T01:01:50.934Z,-0.74
2022-12-04T01:06:52.490Z,-0.76
2022-12-04T01:11:54.043Z,-0.75
2022-12-04T01:16:55.685Z,-0.73
2022-12-04T01:21:57.180Z,-0.71
2022-12-04T01:26:58.715Z,-0.74
2022-12-04T01:32:00.253Z,-0.73
2022-12-04T01:37:01.706Z,-0.71
2022-12-04T01:42:04.338Z,-0.70
2022-12-04T01:47:05.740Z,-0.71
2022-12-04T01:52:11.538Z,-0.71
2022-12-04T01:57:22.119Z,-0.74
2022-12-04T02:02:29.741Z,-0.74
2022-12-04T02:07:32.025Z,-0.72
2022-12-04T02:12:40.778Z,-0.71
2022-12-04T02:18:12.954Z,-0.74
2022-12-04T02:23:36.331Z,-0.73
2022-12-04T02:28:52.409Z,-0.70
2022-12-04T02:34:37.848Z,-0.70
2022-12-04T02:40:20.980Z,-0.70
2022-12-04T02:45:29.823Z,-0.70
2022-12-04T02:50:36.574Z,-0.69
2022-12-04T02:55:42.467Z,-0.70
2022-12-04T03:00:47.199Z,-0.68
2022-12-04T03:06:02.604Z,-0.70
2022-12-04T03:11:04.667Z,-0.65
2022-12-04T03:16:12.644Z,-0.66
2022-12-04T03:21:21.777Z,-0.63
2022-12-04T03:26:32.453Z,-0.66
2022-12-04T03:31:47.848Z,-0.65
2022-12-04T03:36:54.507Z,-0.64
2022-12-04T03:42:01.713Z,-0.63
2022-12-04T03:47:08.529Z,-0.68
2022-12-04T03:52:21.753Z,-0.66
2022-12-04T03:57:30.083Z,-0.63
2022-12-04T04:02:37.674Z,-0.64
2022-12-04T04:07:47.855Z,-0.64
2022-12-04T04:13:32.145Z,-0.64
2022-12-04T04:18:51.813Z,-0.64
2022-12-04T04:24:12.107Z,-0.63
2022-12-04T04:29:13.830Z,-0.62
2022-12-04T04:34:50.499Z,-0.63
2022-12-04T04:40:06.892Z,-0.62
2022-12-04T04:45:23.285Z,-0.61
2022-12-04T04:50:25.087Z,-0.62
2022-12-04T04:55:26.842Z,-0.62
2022-12-04T05:00:28.244Z,-0.65
2022-12-04T05:05:29.702Z,-0.61
2022-12-04T05:10:31.049Z,-0.60
2022-12-04T05:15:32.576Z,-0.61
2022-12-04T05:20:34.865Z,-0.67
2022-12-04T05:25:36.330Z,-0.61
2022-12-04T05:30:37.950Z,-0.65
2022-12-04T05:35:39.383Z,-0.60
2022-12-04T05:40:40.782Z,-0.64
2022-12-04T05:45:42.157Z,-0.61
2022-12-04T05:50:43.570Z,-0.60
2022-12-04T05:55:45.069Z,-0.63
2022-12-04T06:00:46.590Z,-0.60
2022-12-04T06:05:48.047Z,-0.63
2022-12-04T06:10:49.443Z,-0.62
2022-12-04T06:15:51.016Z,-0.62
2022-12-04T06:20:52.642Z,-0.61
2022-12-04T06:25:56.267Z,-0.60
2022-12-04T06:31:04.014Z,-0.60
2022-12-04T06:36:09.107Z,-0.59
2022-12-04T06:41:13.268Z,-0.56
2022-12-04T06:46:18.866Z,-0.56
2022-12-04T06:51:23.096Z,-0.57
2022-12-04T06:56:28.090Z,-0.57
2022-12-04T07:01:31.821Z,-0.58
2022-12-04T07:06:36.050Z,-0.58
2022-12-04T07:11:39.136Z,-0.55
2022-12-04T07:16:42.481Z,-0.51
2022-12-04T07:21:44.491Z,-0.50
2022-12-04T07:26:46.778Z,-0.51
2022-12-04T07:31:48.309Z,-0.51
2022-12-04T07:36:49.752Z,-0.46
2022-12-04T07:41:51.219Z,-0.47
2022-12-04T07:46:52.646Z,-0.44
2022-12-04T07:51:54.120Z,-0.43
2022-12-04T07:56:55.878Z,-0.44
2022-12-04T08:01:57.504Z,-0.42
2022-12-04T08:06:59.146Z,-0.42
2022-12-04T08:12:00.560Z,-0.40
2022-12-04T08:17:01.986Z,-0.34
2022-12-04T08:22:03.420Z,-0.33
2022-12-04T08:27:04.904Z,-0.31
2022-12-04T08:32:07.200Z,-0.34
2022-12-04T08:37:08.603Z,-0.32
2022-12-04T08:42:10.061Z,-0.25
2022-12-04T08:47:11.458Z,-0.25
2022-12-04T08:52:12.902Z,-0.23
2022-12-04T08:57:14.272Z,-0.24
2022-12-04T09:02:16.683Z,-0.21
2022-12-04T09:07:18.102Z,-0.20
2022-12-04T09:12:19.584Z,-0.23
2022-12-04T09:17:20.991Z,-0.20
2022-12-04T09:22:22.487Z,-0.23
2022-12-04T09:27:23.905Z,-0.17
2022-12-04T09:32:25.261Z,-0.23
2022-12-04T09:37:26.654Z,-0.19
2022-12-04T09:42:44.127Z,-0.21
2022-12-04T09:47:50.418Z,-0.18
2022-12-04T09:53:11.325Z,-0.21
2022-12-04T09:58:17.729Z,-0.22
2022-12-04T10:03:22.119Z,-0.21
2022-12-04T10:08:31.367Z,-0.19
2022-12-04T10:13:41.958Z,-0.16
2022-12-04T10:18:46.378Z,-0.12
2022-12-04T10:24:05.018Z,-0.11
2022-12-04T10:29:12.286Z,-0.09
2022-12-04T10:34:19.780Z,-0.08
2022-12-04T10:39:34.487Z,-0.05
2022-12-04T10:44:36.062Z,0.02
2022-12-04T10:49:38.322Z,0.01
2022-12-04T10:54:57.420Z,-0.01
2022-12-04T11:00:00.278Z,0.05
2022-12-04T11:05:22.207Z,0.07
2022-12-04T11:10:39.401Z,0.10
2022-12-04T11:16:07.610Z,0.16
2022-12-04T11:21:33.042Z,0.17
2022-12-04T11:26:40.067Z,0.17
2022-12-04T11:31:41.855Z,0.25
2022-12-04T11:36:43.956Z,0.29
2022-12-04T11:41:46.628Z,0.23
2022-12-04T11:46:53.928Z,0.30
2022-12-04T11:52:09.644Z,0.30
2022-12-04T11:57:24.313Z,0.27
2022-12-04T12:02:32.765Z,0.32
2022-12-04T12:08:12.581Z,0.32
2022-12-04T12:13:29.288Z,0.34
2022-12-04T12:18:56.456Z,0.36
2022-12-04T12:24:24.744Z,0.38
2022-12-04T12:29:43.918Z,0.40
2022-12-04T12:34:51.353Z,0.46
2022-12-04T12:40:10.992Z,0.46
2022-12-04T12:45:31.625Z,0.48
2022-12-04T12:50:44.426Z,0.49
2022-12-04T12:55:53.831Z,0.50
2022-12-04T13:01:15.443Z,0.50
2022-12-04T13:06:34.651Z,0.53
2022-12-04T13:11:48.450Z,0.56
2022-12-04T13:17:01.350Z,0.58
2022-12-04T13:22:40.667Z,0.60
2022-12-04T13:28:11.645Z,0.58
2022-12-04T13:33:50.336Z,0.58
2022-12-04T13:39:18.612Z,0.56
2022-12-04T13:44:22.151Z,0.58
2022-12-04T13:49:26.062Z,0.60
2022-12-04T13:54:33.823Z,0.61
2022-12-04T13:59:38.865Z,0.58
2022-12-04T14:05:13.316Z,0.58
2022-12-04T14:10:14.718Z,0.62
2022-12-04T14:15:25.669Z,0.58
2022-12-04T14:20:30.660Z,0.58
2022-12-04T14:25:37.982Z,0.59
2022-12-04T14:30:40.517Z,0.54
2022-12-04T14:35:53.079Z,0.54
2022-12-04T14:40:57.977Z,0.52
2022-12-04T14:46:23.450Z,0.51
2022-12-04T14:51:37.804Z,0.48
2022-12-04T14:57:09.116Z,0.52
2022-12-04T15:02:17.643Z,0.54
2022-12-04T15:07:28.395Z,0.48
2022-12-04T15:12:35.672Z,0.45
2022-12-04T15:17:37.103Z,0.46
2022-12-04T15:22:38.836Z,0.41
2022-12-04T15:27:40.753Z,0.42
2022-12-04T15:32:42.449Z,0.43
2022-12-04T15:37:43.975Z,0.46
2022-12-04T15:42:45.368Z,0.43
2022-12-04T15:47:46.812Z,0.41
2022-12-04T15:53:12.496Z,0.45
2022-12-04T15:58:22.649Z,0.44
2022-12-04T16:03:30.694Z,0.42
2022-12-04T16:08:38.574Z,0.41
2022-12-04T16:13:39.992Z,0.43
2022-12-04T16:18:43.236Z,0.44
2022-12-04T16:23:45.364Z,0.47
2022-12-04T16:28:47.592Z,0.45
2022-12-04T16:33:49.236Z,0.48
2022-12-04T16:38:51.417Z,0.49
2022-12-04T16:43:55.963Z,0.50
2022-12-04T16:48:58.750Z,0.52
2022-12-04T16:54:01.869Z,0.55
2022-12-04T16:59:06.524Z,0.60
2022-12-04T17:04:10.608Z,0.57
2022-12-04T17:09:12.712Z,0.63
2022-12-04T17:14:15.138Z,0.66
2022-12-04T17:19:17.101Z,0.68
2022-12-04T17:24:18.520Z,0.68
2022-12-04T17:29:22.434Z,0.69
2022-12-04T17:34:23.939Z,0.71
2022-12-04T17:44:51.585Z,0.82
2022-12-04T17:49:53.123Z,0.79
2022-12-04T17:54:55.339Z,0.77
2022-12-04T17:59:57.005Z,0.81
2022-12-04T18:04:58.877Z,0.83
2022-12-04T18:10:00.773Z,0.83
2022-12-04T18:15:02.475Z,0.85
2022-12-04T18:20:05.387Z,0.88
2022-12-04T18:25:08.474Z,0.88
2022-12-04T18:30:10.181Z,0.90
2022-12-04T18:35:11.644Z,0.93
2022-12-04T18:40:13.412Z,0.91
2022-12-04T18:45:15.016Z,0.91
2022-12-04T18:50:17.401Z,0.90
2022-12-04T18:55:18.867Z,0.92
2022-12-04T19:00:20.669Z,0.96
2022-12-04T19:05:22.197Z,1.00
2022-12-04T19:10:24.289Z,0.98
2022-12-04T19:15:26.098Z,0.96
2022-12-04T19:20:29.220Z,0.96
2022-12-04T19:25:30.629Z,0.95
2022-12-04T19:30:33.313Z,0.93
2022-12-04T19:35:37.503Z,0.93
2022-12-04T19:40:40.704Z,0.93
2022-12-04T19:45:52.050Z,0.92
2022-12-04T19:50:53.593Z,0.94
2022-12-04T19:55:58.903Z,0.93
2022-12-04T20:01:06.026Z,0.95
2022-12-04T20:06:21.127Z,0.97
2022-12-04T20:11:23.314Z,0.99
2022-12-04T20:16:31.464Z,1.00
2022-12-04T20:21:35.037Z,1.03
2022-12-04T20:26:41.596Z,1.05
2022-12-04T20:31:49.427Z,1.08
2022-12-04T20:36:50.895Z,1.11
2022-12-04T20:41:52.351Z,1.12
2022-12-04T20:46:53.879Z,1.16
2022-12-04T20:51:55.536Z,1.16
2022-12-04T20:56:57.466Z,1.19
2022-12-04T21:02:02.593Z,1.21
2022-12-04T21:07:04.278Z,1.22
2022-12-04T21:12:29.084Z,1.25
2022-12-04T21:17:32.986Z,1.26
2022-12-04T21:22:34.597Z,1.27
2022-12-04T21:27:36.157Z,1.30
2022-12-04T21:32:37.835Z,1.30
2022-12-04T21:37:39.353Z,1.33
2022-12-04T21:42:44.145Z,1.35
2022-12-04T21:47:45.656Z,1.37
2022-12-04T21:52:48.673Z,1.38
2022-12-04T21:57:50.535Z,1.41
2022-12-04T22:02:52.258Z,1.42
2022-12-04T22:07:56.529Z,1.47
2022-12-04T22:12:58.000Z,1.49
2022-12-04T22:17:59.454Z,1.52
2022-12-04T22:23:01.107Z,1.53
2022-12-04T22:28:04.990Z,1.55
2022-12-04T22:33:06.901Z,1.57
2022-12-04T22:38:11.622Z,1.58
2022-12-04T22:43:18.459Z,1.59
2022-12-04T22:48:19.908Z,1.62
2022-12-04T22:53:21.570Z,1.64
2022-12-04T22:58:28.380Z,1.66
2022-12-04T23:03:29.934Z,1.68
2022-12-04T23:08:31.906Z,1.71
2022-12-04T23:13:33.487Z,1.73
2022-12-04T23:18:35.773Z,1.74
2022-12-04T23:23:40.455Z,1.74
2022-12-04T23:28:46.879Z,1.72
2022-12-04T23:33:53.738Z,1.75
2022-12-04T23:39:02.495Z,1.74
2022-12-04T23:44:05.332Z,1.74
2022-12-04T23:49:07.310Z,1.77
2022-12-04T23:54:08.946Z,1.77
2022-12-04T23:59:18.131Z,1.78
